Time;durP1;ratioP1;P1;durP2;ratioP2;P2;SDS_P1;SDS_P2;PMS_P1;PMS_P2;Temp;Humidity;BMP_temperature;BMP_pressure;BME280_temperature;BME280_humidity;BME280_pressure;Samples;Min_cycle;Max_cycle;Signal;HPM_P1;HPM_P2
2024/03/09 00:00:09;;;;;;;11.57;9.67;;;;;;;5.22;86.46;152702.09;5016693;28;20451;-76
2024/03/09 00:02:37;;;;;;;11.63;8.53;;;;;;;5.20;86.94;152696.94;5040201;28;20450;-76
2024/03/09 00:05:06;;;;;;;13.43;9.33;;;;;;;5.17;87.93;152689.22;5036326;28;20467;-75
2024/03/09 00:07:32;;;;;;;13.10;9.67;;;;;;;5.12;87.85;152676.31;5043969;28;20804;-75
2024/03/09 00:09:59;;;;;;;14.67;10.27;;;;;;;5.09;87.97;152668.59;5010951;28;20794;-75
2024/03/09 00:12:25;;;;;;;12.23;9.37;;;;;;;5.09;88.08;152668.59;5042162;28;20447;-75
2024/03/09 00:14:52;;;;;;;14.20;9.67;;;;;;;5.10;87.53;152671.19;5017429;28;20966;-75
2024/03/09 00:17:19;;;;;;;15.13;10.23;;;;;;;5.09;88.90;152668.59;5039816;28;20469;-75
2024/03/09 00:19:47;;;;;;;13.30;9.43;;;;;;;5.03;88.77;152653.16;5039586;28;20514;-74
2024/03/09 00:22:14;;;;;;;13.87;9.30;;;;;;;5.04;88.51;152655.69;5046533;28;20553;-75
2024/03/09 00:24:41;;;;;;;13.00;10.20;;;;;;;5.03;87.78;152653.16;5040409;28;20451;-75
2024/03/09 00:27:08;;;;;;;16.00;10.80;;;;;;;5.06;87.82;152662.16;5036341;28;20468;-75
2024/03/09 00:29:34;;;;;;;13.20;10.20;;;;;;;5.05;87.49;152659.59;5039140;28;20969;-75
2024/03/09 00:32:01;;;;;;;13.43;9.30;;;;;;;5.04;87.63;152655.69;5027929;28;20435;-75
2024/03/09 00:34:28;;;;;;;17.77;10.33;;;;;;;5.02;88.18;152650.56;5016303;28;20439;-75
2024/03/09 00:36:57;;;;;;;13.97;10.10;;;;;;;5.00;88.61;152646.72;5017677;28;20471;-75
2024/03/09 00:39:24;;;;;;;15.60;10.43;;;;;;;4.98;88.94;152641.53;5013031;28;20965;-75
2024/03/09 00:41:50;;;;;;;13.13;9.27;;;;;;;4.97;89.49;152637.69;5040240;28;20930;-75
2024/03/09 00:44:17;;;;;;;15.93;9.80;;;;;;;4.96;89.35;152635.06;5021791;28;20436;-75
2024/03/09 00:46:43;;;;;;;14.97;9.57;;;;;;;4.96;89.53;152635.06;5014426;28;21059;-75
2024/03/09 00:49:10;;;;;;;17.53;10.20;;;;;;;4.99;89.88;152642.81;5039757;28;20500;-74
2024/03/09 00:51:37;;;;;;;12.63;9.27;;;;;;;4.98;90.21;152640.28;5017874;28;20447;-74
2024/03/09 00:54:06;;;;;;;12.47;8.87;;;;;;;4.97;90.60;152637.69;5018634;28;20446;-75
2024/03/09 00:56:33;;;;;;;15.53;9.93;;;;;;;4.87;90.07;152614.47;5021590;28;20462;-75
2024/03/09 00:59:00;;;;;;;13.40;9.87;;;;;;;4.85;89.60;152608.03;5014863;28;20474;-74
2024/03/09 01:01:28;;;;;;;16.93;11.00;;;;;;;4.84;89.55;152606.72;5020606;28;20451;-74
2024/03/09 01:03:56;;;;;;;15.27;9.80;;;;;;;4.74;89.68;152579.66;5039344;28;20694;-75
2024/03/09 01:06:23;;;;;;;12.00;9.27;;;;;;;4.74;89.63;152580.97;5035720;28;20465;-75
2024/03/09 01:08:49;;;;;;;12.80;9.40;;;;;;;4.70;90.44;152570.66;5027695;28;20913;-75
2024/03/09 01:11:17;;;;;;;13.17;9.73;;;;;;;4.72;90.49;152574.50;5045351;28;20536;-75
2024/03/09 01:13:44;;;;;;;14.80;10.47;;;;;;;4.70;90.88;152569.38;5043756;28;20471;-75
2024/03/09 01:16:12;;;;;;;14.77;10.60;;;;;;;4.64;91.16;152555.19;5038339;28;20876;-75
2024/03/09 01:18:38;;;;;;;15.20;11.20;;;;;;;4.62;91.45;152548.75;5020573;28;21295;-75
2024/03/09 01:21:07;;;;;;;16.40;10.70;;;;;;;4.59;92.26;152542.31;5039507;28;20492;-75
2024/03/09 01:23:33;;;;;;;14.40;10.73;;;;;;;4.58;92.68;152539.72;5007850;28;20443;-75
2024/03/09 01:26:00;;;;;;;17.70;11.70;;;;;;;4.55;93.28;152532.03;5024035;28;20451;-75
2024/03/09 01:28:28;;;;;;;17.40;14.13;;;;;;;4.52;92.79;152523.00;5032568;28;20793;-75
2024/03/09 01:30:56;;;;;;;20.30;14.27;;;;;;;4.54;93.19;152529.44;5038767;28;20542;-74
2024/03/09 01:33:23;;;;;;;17.60;14.07;;;;;;;4.54;92.54;152529.44;5021244;28;20541;-74
2024/03/09 01:35:51;;;;;;;16.40;11.30;;;;;;;4.53;92.82;152526.84;5028457;28;20474;-74
2024/03/09 01:38:20;;;;;;;14.63;10.00;;;;;;;4.54;92.48;152529.44;5029274;28;20459;-75
2024/03/09 01:40:47;;;;;;;15.10;10.00;;;;;;;4.54;93.15;152528.13;5028620;28;20442;-74
2024/03/09 01:43:16;;;;;;;14.93;10.27;;;;;;;4.56;92.94;152533.28;5010632;28;20455;-75
2024/03/09 01:45:45;;;;;;;12.57;9.73;;;;;;;4.52;93.96;152523.00;5023857;28;20442;-74
2024/03/09 01:48:12;;;;;;;14.63;10.03;;;;;;;4.41;94.29;152495.94;5013948;28;20447;-75
2024/03/09 01:50:39;;;;;;;14.37;10.33;;;;;;;4.32;94.44;152474.03;5037877;28;20487;-75
2024/03/09 01:53:07;;;;;;;12.67;9.63;;;;;;;4.31;94.84;152470.19;5038365;28;20459;-75
2024/03/09 01:55:34;;;;;;;16.10;10.50;;;;;;;4.30;95.18;152467.59;5038708;28;20954;-75
2024/03/09 01:58:02;;;;;;;15.13;10.40;;;;;;;4.30;95.98;152467.59;5022019;28;20468;-75
2024/03/09 02:00:29;;;;;;;16.40;10.43;;;;;;;4.25;95.49;152456.03;5040630;28;20526;-75
2024/03/09 02:02:57;;;;;;;13.50;10.17;;;;;;;4.26;96.11;152458.56;5014073;28;20443;-75
2024/03/09 02:05:24;;;;;;;13.33;9.77;;;;;;;4.20;96.49;152443.16;5031996;28;20494;-75
2024/03/09 02:07:51;;;;;;;16.00;10.70;;;;;;;4.13;96.48;152423.84;5040760;28;20896;-75
2024/03/09 02:10:18;;;;;;;15.80;10.40;;;;;;;4.06;96.70;152405.78;5026027;28;20453;-75
2024/03/09 02:12:45;;;;;;;14.30;9.93;;;;;;;4.01;96.65;152392.91;5023908;28;20457;-75
2024/03/09 02:15:16;;;;;;;14.70;10.73;;;;;;;3.98;97.27;152386.47;5037172;28;20423;-75
2024/03/09 02:17:42;;;;;;;14.20;10.50;;;;;;;3.96;97.73;152381.31;5014604;28;20456;-75
2024/03/09 02:20:12;;;;;;;14.63;10.37;;;;;;;4.01;97.71;152392.91;5042369;28;20525;-75
2024/03/09 02:22:39;;;;;;;15.10;10.87;;;;;;;4.13;98.92;152423.84;5040846;28;20507;-75
2024/03/09 02:25:09;;;;;;;14.03;10.10;;;;;;;4.17;99.21;152435.41;5019750;28;20455;-75
2024/03/09 02:27:36;;;;;;;14.67;10.33;;;;;;;4.19;99.48;152440.56;5016738;28;20591;-75
2024/03/09 02:30:03;;;;;;;17.53;11.80;;;;;;;4.22;99.09;152448.28;5033467;28;20431;-75
2024/03/09 02:32:30;;;;;;;17.27;10.90;;;;;;;4.25;99.26;152454.72;5037209;28;20546;-74
2024/03/09 02:34:57;;;;;;;16.27;11.57;;;;;;;4.24;99.14;152453.44;5034136;28;20485;-75
2024/03/09 02:37:24;;;;;;;17.20;10.70;;;;;;;4.20;98.87;152443.16;5000429;28;20460;-75
2024/03/09 02:39:51;;;;;;;13.97;10.23;;;;;;;4.17;98.56;152434.13;5029001;28;20478;-75
2024/03/09 02:42:19;;;;;;;16.20;11.73;;;;;;;4.21;98.92;152444.41;5041355;28;20448;-74
2024/03/09 02:44:46;;;;;;;16.77;11.80;;;;;;;4.27;99.21;152459.88;5038318;28;20780;-75
2024/03/09 02:47:15;;;;;;;14.40;11.10;;;;;;;4.29;99.33;152465.00;5018193;28;20506;-76
2024/03/09 02:49:42;;;;;;;18.40;12.03;;;;;;;4.31;99.42;152470.19;5024403;28;20439;-77
2024/03/09 02:52:09;;;;;;;15.33;11.33;;;;;;;4.31;99.33;152470.19;5040714;28;20506;-76
2024/03/09 02:54:36;;;;;;;18.87;12.30;;;;;;;4.34;99.57;152476.63;5040002;28;20458;-75
2024/03/09 02:57:06;;;;;;;19.13;13.03;;;;;;;4.34;98.91;152476.63;5030741;28;20816;-77
2024/03/09 02:59:35;;;;;;;13.77;10.80;;;;;;;4.37;99.57;152485.63;5037484;28;20467;-76
2024/03/09 03:02:13;;;;;;;16.70;10.90;;;;;;;4.38;99.87;152488.22;5042007;28;20458;-76
2024/03/09 03:04:40;;;;;;;19.00;12.90;;;;;;;4.39;99.83;152489.50;5026142;28;20925;-76
2024/03/09 03:07:08;;;;;;;17.97;12.77;;;;;;;4.39;99.49;152490.81;5031316;28;20482;-75
2024/03/09 03:09:35;;;;;;;19.37;13.20;;;;;;;4.43;98.91;152501.09;5046210;28;20457;-76
2024/03/09 03:12:02;;;;;;;17.40;12.60;;;;;;;4.46;97.72;152508.81;5020987;28;20431;-76
2024/03/09 03:14:30;;;;;;;18.70;11.43;;;;;;;4.50;96.93;152519.09;5049158;28;21042;-75
2024/03/09 03:16:58;;;;;;;15.80;11.73;;;;;;;4.51;96.61;152521.69;5045281;28;20470;-76
2024/03/09 03:19:26;;;;;;;16.67;11.20;;;;;;;4.53;95.84;152525.53;5043211;28;20474;-76
2024/03/09 03:21:54;;;;;;;18.33;11.80;;;;;;;4.51;96.63;152521.69;5007693;28;20557;-76
2024/03/09 03:24:22;;;;;;;18.53;11.60;;;;;;;4.52;96.37;152524.28;5020276;28;20461;-76
2024/03/09 03:26:49;;;;;;;17.83;11.77;;;;;;;4.54;96.68;152529.44;5011193;28;20446;-76
2024/03/09 03:29:17;;;;;;;16.77;11.80;;;;;;;4.55;96.92;152532.03;5037566;28;20439;-76
2024/03/09 03:31:44;;;;;;;16.73;12.20;;;;;;;4.50;97.05;152517.84;5037282;28;20534;-76
2024/03/09 03:34:12;;;;;;;19.40;12.60;;;;;;;4.47;96.89;152511.41;5040982;28;20975;-76
2024/03/09 03:36:39;;;;;;;16.23;11.53;;;;;;;4.49;96.27;152516.56;5046210;28;20509;-76
2024/03/09 03:39:12;;;;;;;15.47;11.07;;;;;;;4.50;96.36;152519.09;5022715;28;20477;-76
2024/03/09 03:41:39;;;;;;;13.00;10.07;;;;;;;4.54;96.06;152529.44;5026814;28;20810;-76
2024/03/09 03:44:05;;;;;;;17.20;12.20;;;;;;;4.57;96.24;152535.88;5020906;28;21001;-76
2024/03/09 03:46:32;;;;;;;21.23;12.07;;;;;;;4.55;96.02;152530.72;5015525;28;20454;-76
2024/03/09 03:49:01;;;;;;;16.20;11.43;;;;;;;4.53;96.11;152525.53;5025469;28;21130;-75
2024/03/09 03:51:29;;;;;;;15.70;10.83;;;;;;;4.50;95.69;152519.09;5037632;28;20817;-75
2024/03/09 03:53:56;;;;;;;14.53;9.97;;;;;;;4.44;95.79;152502.38;5013684;28;20475;-76
2024/03/09 03:56:24;;;;;;;16.40;11.40;;;;;;;4.44;96.69;152503.69;5026487;28;20528;-76
2024/03/09 03:58:51;;;;;;;15.03;10.10;;;;;;;4.41;97.45;152495.94;5044499;28;20474;-76
2024/03/09 04:01:18;;;;;;;16.80;11.53;;;;;;;4.43;98.01;152499.78;5039503;28;20604;-76
2024/03/09 04:03:47;;;;;;;15.90;11.27;;;;;;;4.39;98.82;152490.81;5020796;28;20687;-76
2024/03/09 04:06:13;;;;;;;15.47;11.50;;;;;;;4.37;99.49;152485.63;5040821;28;20459;-76
2024/03/09 04:08:41;;;;;;;17.10;11.53;;;;;;;4.36;99.50;152481.78;5043159;28;20439;-76
2024/03/09 04:11:08;;;;;;;18.13;12.17;;;;;;;4.37;100.00;152484.38;5028283;28;20458;-76
2024/03/09 04:13:34;;;;;;;18.40;12.50;;;;;;;4.38;100.00;152488.22;5038151;28;20431;-76
2024/03/09 04:16:02;;;;;;;23.93;13.63;;;;;;;4.40;100.00;152492.06;5040517;28;20857;-76
2024/03/09 04:18:30;;;;;;;16.50;11.53;;;;;;;4.38;99.75;152488.22;5039343;28;20546;-76
2024/03/09 04:20:57;;;;;;;19.07;13.20;;;;;;;4.40;99.72;152493.34;5039395;28;20466;-76
2024/03/09 04:23:23;;;;;;;18.20;12.57;;;;;;;4.45;99.87;152506.22;5028934;28;20863;-76
2024/03/09 04:25:52;;;;;;;19.60;12.83;;;;;;;4.46;99.20;152507.53;5037522;28;20454;-76
2024/03/09 04:28:21;;;;;;;19.93;11.90;;;;;;;4.49;98.97;152516.56;5030402;28;20447;-76
2024/03/09 04:30:48;;;;;;;20.70;11.97;;;;;;;4.51;98.38;152520.41;5042840;28;20547;-76
2024/03/09 04:33:15;;;;;;;22.90;13.43;;;;;;;4.51;98.21;152521.69;5033201;28;20601;-76
2024/03/09 04:35:42;;;;;;;14.47;10.93;;;;;;;4.53;97.95;152526.84;5009517;28;20505;-76
2024/03/09 04:38:09;;;;;;;17.10;12.23;;;;;;;4.51;98.74;152521.69;5009090;28;20455;-76
2024/03/09 04:40:37;;;;;;;19.40;12.40;;;;;;;4.49;98.00;152515.25;5045508;28;20466;-75
2024/03/09 04:43:05;;;;;;;14.90;11.43;;;;;;;4.51;97.47;152520.41;5042679;28;20490;-76
2024/03/09 04:45:33;;;;;;;16.83;12.10;;;;;;;4.53;96.33;152526.84;5047761;28;20431;-76
2024/03/09 04:48:00;;;;;;;17.43;12.70;;;;;;;4.55;96.87;152530.72;5048552;28;20443;-76
2024/03/09 04:50:28;;;;;;;16.00;11.90;;;;;;;4.53;96.79;152526.84;5049009;28;20493;-76
2024/03/09 04:52:55;;;;;;;20.67;13.73;;;;;;;4.52;96.19;152523.00;5026970;28;20965;-76
2024/03/09 04:55:25;;;;;;;16.13;11.67;;;;;;;4.45;96.38;152506.22;5027411;28;20481;-76
2024/03/09 04:57:53;;;;;;;16.70;11.83;;;;;;;4.42;96.03;152498.50;5046728;28;20473;-75
2024/03/09 05:00:21;;;;;;;15.23;11.17;;;;;;;4.41;96.15;152495.94;5026971;28;20508;-75
2024/03/09 05:02:49;;;;;;;16.97;11.87;;;;;;;4.40;95.92;152493.34;5038998;28;20470;-74
2024/03/09 05:05:17;;;;;;;17.50;11.60;;;;;;;4.38;95.43;152488.22;5025089;28;20533;-75
2024/03/09 05:07:46;;;;;;;14.30;10.20;;;;;;;4.37;95.31;152484.38;5037689;28;20884;-74
2024/03/09 05:10:17;;;;;;;14.50;10.37;;;;;;;4.34;95.32;152477.94;5025750;28;20593;-74
2024/03/09 05:12:43;;;;;;;14.70;10.63;;;;;;;4.35;95.99;152480.47;5029912;28;20442;-75
2024/03/09 05:15:11;;;;;;;12.83;10.60;;;;;;;4.36;95.47;152483.06;5028453;28;20463;-74
2024/03/09 05:17:39;;;;;;;16.87;11.47;;;;;;;4.39;95.96;152489.50;5049023;28;20443;-75
2024/03/09 05:20:11;;;;;;;15.33;10.00;;;;;;;4.42;96.60;152498.50;5047168;28;20483;-75
2024/03/09 05:22:38;;;;;;;17.70;11.83;;;;;;;4.34;96.99;152477.94;5025336;28;20552;-75
2024/03/09 05:25:10;;;;;;;16.87;10.23;;;;;;;4.37;96.14;152485.63;5040561;28;20455;-75
2024/03/09 05:27:40;;;;;;;14.63;11.77;;;;;;;4.30;96.60;152468.91;5025297;28;20454;-75
2024/03/09 05:30:08;;;;;;;18.37;11.93;;;;;;;4.26;96.62;152457.31;5005005;28;20439;-75
2024/03/09 05:32:35;;;;;;;13.43;10.23;;;;;;;4.27;96.71;152459.88;5041841;28;20485;-75
2024/03/09 05:35:03;;;;;;;16.33;10.70;;;;;;;4.31;97.50;152470.19;5047380;28;20512;-74
2024/03/09 05:37:30;;;;;;;16.57;11.07;;;;;;;4.32;97.91;152472.75;5009243;28;20455;-75
2024/03/09 05:39:56;;;;;;;15.30;10.47;;;;;;;4.29;97.68;152466.31;5038402;28;20459;-75
2024/03/09 05:42:23;;;;;;;16.13;11.30;;;;;;;4.29;98.06;152465.00;5019482;28;20522;-75
2024/03/09 05:44:49;;;;;;;14.77;10.77;;;;;;;4.32;97.75;152472.75;5028052;28;20801;-75
2024/03/09 05:47:16;;;;;;;14.43;11.10;;;;;;;4.27;98.19;152461.16;5005441;28;20658;-76
2024/03/09 05:49:44;;;;;;;15.97;10.30;;;;;;;4.18;98.13;152437.97;5023199;28;20443;-74
2024/03/09 05:52:13;;;;;;;13.00;9.80;;;;;;;4.16;97.53;152431.53;5023563;28;20490;-75
2024/03/09 05:54:39;;;;;;;14.90;10.53;;;;;;;4.15;97.22;152428.97;5026727;28;20451;-74
2024/03/09 05:57:06;;;;;;;14.40;10.70;;;;;;;4.16;97.30;152431.53;5037317;28;20923;-75
2024/03/09 05:59:33;;;;;;;17.33;11.83;;;;;;;4.15;97.80;152430.28;5021748;28;20957;-75
2024/03/09 06:02:00;;;;;;;15.70;10.87;;;;;;;4.13;97.88;152423.84;5022072;28;20541;-75
2024/03/09 06:04:27;;;;;;;15.30;10.90;;;;;;;4.13;97.59;152423.84;5011316;28;20833;-75
2024/03/09 06:06:54;;;;;;;18.10;11.83;;;;;;;4.11;97.89;152419.94;5034840;28;20454;-75
2024/03/09 06:09:23;;;;;;;15.07;10.20;;;;;;;4.10;97.52;152417.34;5015335;28;20456;-74
2024/03/09 06:11:49;;;;;;;17.50;11.30;;;;;;;4.10;97.56;152416.09;5034275;28;20466;-74
2024/03/09 06:14:20;;;;;;;14.43;11.67;;;;;;;4.08;97.51;152412.22;5016655;28;20531;-74
2024/03/09 06:16:47;;;;;;;18.30;11.40;;;;;;;4.10;97.35;152417.34;5017081;28;20516;-75
2024/03/09 06:19:14;;;;;;;15.20;10.50;;;;;;;4.09;97.53;152413.50;5025951;28;20459;-74
2024/03/09 06:21:40;;;;;;;18.13;12.07;;;;;;;4.11;98.25;152419.94;5033658;28;20525;-74
2024/03/09 06:24:07;;;;;;;17.10;11.67;;;;;;;4.16;99.02;152432.81;5018838;28;20813;-74
2024/03/09 06:26:35;;;;;;;19.73;14.07;;;;;;;4.20;98.81;152441.84;5039085;28;20964;-75
2024/03/09 06:29:01;;;;;;;18.07;12.10;;;;;;;4.23;98.77;152449.59;5027731;28;20455;-75
2024/03/09 06:31:28;;;;;;;18.83;12.60;;;;;;;4.27;97.75;152461.16;5038176;28;20486;-76
2024/03/09 06:33:54;;;;;;;14.30;11.53;;;;;;;4.41;97.51;152494.66;5037763;28;20462;-76
2024/03/09 06:36:21;;;;;;;15.17;10.90;;;;;;;4.65;97.77;152557.78;5039979;28;20459;-76
2024/03/09 06:38:48;;;;;;;16.67;11.67;;;;;;;4.90;96.28;152620.91;5039533;28;20457;-75
2024/03/09 06:41:15;;;;;;;16.20;11.47;;;;;;;5.15;95.51;152685.38;5002428;28;20484;-75
2024/03/09 06:43:43;;;;;;;15.83;11.23;;;;;;;5.32;93.81;152729.16;5037131;28;20451;-74
2024/03/09 06:46:10;;;;;;;14.40;11.33;;;;;;;5.48;93.20;152770.44;5039713;28;21093;-75
2024/03/09 06:48:37;;;;;;;21.10;13.23;;;;;;;5.61;92.21;152802.72;5037295;28;20451;-75
2024/03/09 06:51:06;;;;;;;17.47;11.57;;;;;;;5.72;91.01;152831.03;5037777;28;20451;-75
2024/03/09 06:53:33;;;;;;;19.13;12.83;;;;;;;5.76;89.68;152841.38;5038729;28;21242;-75
2024/03/09 06:56:03;;;;;;;16.30;11.23;;;;;;;5.86;89.48;152865.91;5038869;28;20508;-75
2024/03/09 06:58:30;;;;;;;14.50;10.57;;;;;;;6.02;90.26;152907.19;5036394;28;20475;-75
2024/03/09 07:00:58;;;;;;;15.70;11.87;;;;;;;6.20;90.79;152952.31;5031156;28;20529;-75
2024/03/09 07:03:25;;;;;;;19.27;12.90;;;;;;;6.34;89.96;152989.78;5038682;28;20508;-75
2024/03/09 07:05:52;;;;;;;14.27;11.33;;;;;;;6.52;90.24;153036.22;5039180;28;20834;-74
2024/03/09 07:08:21;;;;;;;19.07;12.93;;;;;;;6.68;89.65;153076.22;5038075;28;20465;-74
2024/03/09 07:10:48;;;;;;;13.80;10.83;;;;;;;6.86;89.29;153122.69;5038594;28;20459;-74
2024/03/09 07:13:15;;;;;;;16.47;12.70;;;;;;;7.00;89.33;153157.53;5021136;28;20458;-75
2024/03/09 07:15:41;;;;;;;16.27;12.10;;;;;;;7.13;88.64;153192.41;5041944;28;20812;-76
2024/03/09 07:18:10;;;;;;;15.77;11.80;;;;;;;7.28;87.69;153229.88;5037403;28;20509;-76
2024/03/09 07:20:37;;;;;;;14.00;10.50;;;;;;;7.45;87.24;153272.47;5040074;28;20479;-76
2024/03/09 07:23:05;;;;;;;14.93;12.40;;;;;;;7.62;86.71;153317.69;5037611;28;20455;-76
2024/03/09 07:25:32;;;;;;;16.40;11.93;;;;;;;7.79;86.59;153360.28;5018616;28;20459;-76
2024/03/09 07:27:59;;;;;;;16.27;11.70;;;;;;;7.89;86.81;153387.41;5038663;28;20481;-76
2024/03/09 07:30:46;;;;;;;15.57;11.10;;;;;;;8.08;85.34;153435.22;5035118;28;20528;-75
2024/03/09 07:33:20;;;;;;;14.37;11.27;;;;;;;8.29;83.79;153489.56;5039927;28;20878;-76
2024/03/09 07:36:00;;;;;;;15.50;12.30;;;;;;;8.53;82.45;153551.59;5038367;28;20830;-76
2024/03/09 07:38:27;;;;;;;14.47;11.47;;;;;;;8.72;81.43;153598.13;5037949;28;20549;-76
2024/03/09 07:40:54;;;;;;;15.07;10.73;;;;;;;8.94;80.56;153655.03;5037572;28;20515;-76
2024/03/09 07:43:21;;;;;;;18.73;11.50;;;;;;;9.18;79.55;153717.13;5010839;28;20540;-76
2024/03/09 07:45:47;;;;;;;14.50;11.80;;;;;;;9.41;77.76;153776.59;5023723;28;20515;-75
2024/03/09 07:48:16;;;;;;;15.70;11.70;;;;;;;9.67;76.79;153843.88;5020972;28;20443;-75
2024/03/09 07:50:48;;;;;;;14.40;11.10;;;;;;;9.95;76.02;153913.75;5020101;28;20459;-76
2024/03/09 07:53:15;;;;;;;14.47;10.93;;;;;;;10.14;75.08;153964.25;5018122;28;20966;-76
2024/03/09 07:55:41;;;;;;;17.00;12.53;;;;;;;10.32;74.61;154009.59;5022265;28;20474;-75
2024/03/09 07:58:10;;;;;;;17.23;11.37;;;;;;;10.48;72.63;154049.72;5025630;28;21064;-76
2024/03/09 08:00:36;;;;;;;16.40;12.00;;;;;;;10.75;71.71;154119.66;5039378;28;20838;-75
2024/03/09 08:03:03;;;;;;;17.53;11.97;;;;;;;10.95;70.08;154172.75;5039745;28;20458;-76
2024/03/09 08:05:30;;;;;;;14.70;11.47;;;;;;;11.20;70.18;154234.94;5003043;28;20486;-75
2024/03/09 08:08:02;;;;;;;14.23;11.03;;;;;;;11.30;68.34;154260.81;5018866;28;20467;-75
2024/03/09 08:10:29;;;;;;;15.90;10.87;;;;;;;11.32;65.98;154266.00;5017952;28;20532;-76
2024/03/09 08:12:56;;;;;;;15.00;11.40;;;;;;;11.47;68.41;154304.84;5026457;28;20954;-76
2024/03/09 08:15:24;;;;;;;13.53;11.47;;;;;;;11.57;68.65;154330.75;5034509;28;20491;-76
2024/03/09 08:17:54;;;;;;;14.53;12.57;;;;;;;11.61;68.58;154341.16;5037983;28;20605;-76
2024/03/09 08:20:21;;;;;;;15.17;11.70;;;;;;;11.66;68.59;154352.78;5019070;28;20514;-76
2024/03/09 08:22:48;;;;;;;12.60;10.20;;;;;;;11.64;68.79;154348.94;5035816;28;20553;-76
2024/03/09 08:25:17;;;;;;;18.60;12.30;;;;;;;11.63;66.37;154346.31;5034208;28;21078;-76
2024/03/09 08:27:45;;;;;;;14.73;11.20;;;;;;;11.57;64.63;154330.75;5035009;28;20460;-75
2024/03/09 08:30:14;;;;;;;15.73;11.30;;;;;;;11.50;66.44;154312.63;5036071;28;20459;-76
2024/03/09 08:32:43;;;;;;;16.17;12.37;;;;;;;11.00;64.77;154184.38;5027111;28;20439;-76
2024/03/09 08:35:10;;;;;;;13.80;11.27;;;;;;;10.91;66.59;154162.34;5014119;28;21377;-75
2024/03/09 08:37:38;;;;;;;15.70;12.00;;;;;;;10.82;66.41;154137.78;5023610;28;20466;-75
2024/03/09 08:40:18;;;;;;;13.47;11.33;;;;;;;10.77;66.71;154126.13;5008879;28;20475;-75
2024/03/09 08:43:06;;;;;;;14.50;9.27;;;;;;;10.69;68.48;154105.41;5019769;28;20518;-75
2024/03/09 08:45:34;;;;;;;14.73;10.93;;;;;;;10.67;68.11;154100.19;5034441;28;20961;-75
2024/03/09 08:48:03;;;;;;;14.77;10.83;;;;;;;10.59;70.51;154079.47;5036238;28;20483;-75
2024/03/09 08:50:30;;;;;;;16.60;12.93;;;;;;;10.50;71.31;154054.88;5025243;28;20456;-76
2024/03/09 08:52:56;;;;;;;17.20;11.70;;;;;;;10.46;68.80;154045.81;5017313;28;20460;-75
2024/03/09 08:55:25;;;;;;;13.50;10.30;;;;;;;10.47;70.28;154048.41;5022531;28;20462;-75
2024/03/09 08:57:51;;;;;;;12.87;10.87;;;;;;;10.51;69.75;154058.75;5036150;28;21132;-75
2024/03/09 09:00:24;;;;;;;13.33;10.80;;;;;;;10.57;70.09;154074.31;5036368;28;20463;-75
2024/03/09 09:02:51;;;;;;;13.60;9.93;;;;;;;10.59;68.67;154079.47;5021260;28;20495;-75
2024/03/09 09:05:21;;;;;;;13.80;9.80;;;;;;;10.62;67.42;154087.25;5037408;28;20479;-75
2024/03/09 09:07:48;;;;;;;16.03;10.80;;;;;;;10.58;68.42;154076.91;5039424;28;20540;-75
2024/03/09 09:10:16;;;;;;;12.37;10.30;;;;;;;10.62;68.01;154085.94;5013971;28;20479;-76
2024/03/09 09:12:46;;;;;;;14.93;10.17;;;;;;;10.68;67.88;154102.78;5035945;28;20946;-75
2024/03/09 09:15:16;;;;;;;13.13;11.10;;;;;;;10.74;68.41;154117.03;5035416;28;20462;-75
2024/03/09 09:17:42;;;;;;;14.37;10.57;;;;;;;10.76;68.48;154123.53;5031249;28;20864;-75
2024/03/09 09:20:11;;;;;;;14.47;10.63;;;;;;;10.77;68.59;154126.13;5038303;28;20447;-75
2024/03/09 09:22:38;;;;;;;13.40;10.70;;;;;;;10.75;67.83;154120.91;5038571;28;20583;-76
2024/03/09 09:25:06;;;;;;;11.00;9.37;;;;;;;10.67;68.49;154100.19;5038305;28;20484;-76
2024/03/09 09:27:34;;;;;;;12.20;10.30;;;;;;;10.68;68.13;154102.78;5023331;28;20451;-76
2024/03/09 09:30:02;;;;;;;13.03;10.17;;;;;;;10.55;67.37;154069.13;5038215;28;20460;-76
2024/03/09 09:32:29;;;;;;;12.70;9.77;;;;;;;10.26;67.80;153994.03;5036307;28;20493;-76
2024/03/09 09:34:56;;;;;;;12.97;8.30;;;;;;;10.29;70.18;154001.81;5018739;28;20446;-76
2024/03/09 09:37:22;;;;;;;10.73;9.00;;;;;;;10.36;69.83;154019.94;5017363;28;20465;-76
2024/03/09 09:39:51;;;;;;;12.23;9.93;;;;;;;10.39;68.32;154029.00;5036904;28;20463;-76
2024/03/09 09:42:18;;;;;;;10.70;9.47;;;;;;;10.57;69.26;154073.00;5024760;28;20942;-76
2024/03/09 09:44:45;;;;;;;12.40;9.70;;;;;;;10.68;68.22;154102.78;5005359;28;20446;-75
2024/03/09 09:47:14;;;;;;;11.27;9.37;;;;;;;10.57;67.37;154074.31;5020342;28;20458;-76
2024/03/09 09:49:40;;;;;;;12.40;9.50;;;;;;;10.55;67.64;154069.13;5035426;28;20444;-76
2024/03/09 09:52:09;;;;;;;13.10;10.10;;;;;;;10.63;68.11;154089.84;5038462;28;20461;-76
2024/03/09 09:54:36;;;;;;;13.70;9.60;;;;;;;10.77;67.60;154126.13;5036196;28;20443;-76
2024/03/09 09:57:03;;;;;;;14.57;10.20;;;;;;;10.73;67.79;154115.75;5035032;28;20467;-76
2024/03/09 09:59:30;;;;;;;11.97;8.93;;;;;;;10.72;67.50;154113.13;5039949;28;20475;-76
2024/03/09 10:01:58;;;;;;;13.63;9.37;;;;;;;10.69;66.43;154104.09;5025959;28;20486;-76
2024/03/09 10:04:26;;;;;;;11.00;8.90;;;;;;;10.76;67.40;154123.53;5038425;28;20560;-76
2024/03/09 10:07:06;;;;;;;15.90;10.63;;;;;;;10.88;66.37;154154.56;5033872;28;20469;-75
2024/03/09 10:09:33;;;;;;;10.27;8.57;;;;;;;10.98;65.92;154180.53;5040361;28;20450;-76
2024/03/09 10:11:59;;;;;;;10.07;8.20;;;;;;;11.01;64.44;154188.25;5038917;28;20939;-75
2024/03/09 10:14:28;;;;;;;11.20;8.07;;;;;;;10.91;63.55;154162.34;5020538;28;20482;-75
2024/03/09 10:16:55;;;;;;;12.07;9.00;;;;;;;10.88;64.60;154154.56;5035495;28;20474;-76
2024/03/09 10:19:21;;;;;;;11.43;7.80;;;;;;;10.99;64.76;154183.09;5041342;28;20459;-76
2024/03/09 10:21:51;;;;;;;11.13;8.90;;;;;;;11.16;64.92;154224.53;5017092;28;20488;-75
2024/03/09 10:24:18;;;;;;;10.33;8.07;;;;;;;11.23;63.95;154242.66;5041067;28;20464;-75
2024/03/09 10:26:45;;;;;;;10.93;8.73;;;;;;;11.37;63.65;154278.94;5038945;28;20462;-75
2024/03/09 10:29:13;;;;;;;12.33;9.30;;;;;;;11.31;63.22;154264.69;5041170;28;20455;-76
2024/03/09 10:31:42;;;;;;;10.87;8.30;;;;;;;11.31;62.68;154263.38;5008446;28;20968;-74
2024/03/09 10:34:10;;;;;;;8.70;7.00;;;;;;;11.35;62.70;154273.78;5040042;28;20463;-74
2024/03/09 10:36:39;;;;;;;9.57;7.63;;;;;;;11.44;61.57;154298.38;5039458;28;20947;-74
2024/03/09 10:39:07;;;;;;;8.97;6.87;;;;;;;11.48;62.14;154307.47;5021496;28;20458;-75
2024/03/09 10:41:36;;;;;;;9.37;7.10;;;;;;;11.61;61.91;154341.16;5005934;28;20475;-75
2024/03/09 10:44:05;;;;;;;10.20;7.17;;;;;;;11.66;60.56;154354.09;5002494;28;20837;-75
2024/03/09 10:46:33;;;;;;;7.10;5.77;;;;;;;11.71;60.19;154367.09;5036942;28;20814;-75
2024/03/09 10:49:00;;;;;;;8.57;7.00;;;;;;;11.71;60.64;154367.09;5026428;28;20562;-75
2024/03/09 10:51:37;;;;;;;10.10;6.67;;;;;;;11.69;58.67;154360.63;5037696;28;20451;-75
2024/03/09 10:54:17;;;;;;;9.70;6.53;;;;;;;11.72;59.93;154369.72;5028362;28;20929;-75
2024/03/09 10:56:45;;;;;;;8.40;6.80;;;;;;;11.79;60.05;154387.84;5038980;28;20808;-75
2024/03/09 10:59:14;;;;;;;9.60;6.97;;;;;;;11.88;58.59;154411.19;5039532;28;20520;-74
2024/03/09 11:01:42;;;;;;;8.50;6.53;;;;;;;11.91;57.75;154418.97;5028672;28;20587;-76
2024/03/09 11:04:09;;;;;;;8.20;6.63;;;;;;;11.88;59.81;154411.19;5019657;28;21012;-75
2024/03/09 11:06:36;;;;;;;9.67;5.87;;;;;;;11.92;56.87;154421.53;5019095;28;20499;-75
2024/03/09 11:09:06;;;;;;;9.00;5.97;;;;;;;11.93;58.20;154422.84;5039792;28;20541;-75
2024/03/09 11:11:35;;;;;;;8.97;6.50;;;;;;;11.99;58.29;154439.66;5021259;28;20444;-75
2024/03/09 11:14:05;;;;;;;8.70;6.10;;;;;;;12.05;58.34;154455.25;5018424;28;20972;-75
2024/03/09 11:16:36;;;;;;;10.60;7.67;;;;;;;12.13;58.95;154475.97;5021135;28;20469;-75
2024/03/09 11:19:03;;;;;;;9.13;6.70;;;;;;;12.22;58.78;154498.03;5033841;28;20490;-75